Aérodrome :
LOGIN :

S'inscrire | Disclaimer

   EN    FR    IT 

 










Légende :    VFR   VFR Marginal   IFR   IFR Intensif   IFR Très Intensif
Visi : 
Plafond : 
>= 8 km
>= 3000ft
5 à 8 km
1000 à 3000 ft
1500m à 5 km
500 à 1000 ft
800 à 1500m
200 à 500 ft
< 800m
< 200 ft
Symboles :   Orages  Brouillard  Fortes neiges  Fortes précipitations  Vent > 20 kt
SIGMETs :   Divers  Orages  Givrage  Turbulence  Onde Orograph.  Cendres Volcan.






- Altitude de l'aérodrome : 218 ft


EGYD - RAF Cranwell

DERNIER METAR :
  • 261250Z 20018KT 9999 FEW015 SCT040 BKN100 09/06 Q1005 NOSIG RMK BLU BLU

METARs EXPIRÉS :
  • 261220Z 20019KT 9999 FEW015 SCT045 BKN090 09/06 Q1005 NOSIG RMK BLU BLU
  • 261150Z 19018KT 9999 FEW015 SCT090 BKN250 09/06 Q1006 NOSIG RMK BLU BLU
  • 261120Z 19019KT 9999 FEW014 SCT100 BKN250 09/06 Q1006 NOSIG RMK BLU BLU
  • 261050Z 19018KT 9999 FEW014 BKN250 08/06 Q1007 NOSIG RMK BLU BLU

TAF TAF EGYD
Valide du 26 à 12h jusqu'au 26 à 17h UTC


261051Z 2612/2617 19018G28KT 9999 FEW012 BKN030
BECMG 2613/2615 6000 -RA BKN010



MET'MAP, la Météo Aéronautique d'un coup d'oeil ! - Copyright ORBIFLY Décembre 2007 - Disclaimer

ORBIFLY MET'MAP TEAM :

Programmation & Développement : Alexandra Zaïnal
Sur une idée originale de : Baudouin d'Aumeries
Assistance à la programmation : Marc-Olivier Méhu
Soutien technique & logistique : Manuel Goepfert

Contact : metmap@orbifly.com




SOURCES & CREDITS :

   NOAA